sensor_id;sensor_type;location;lat;lon;timestamp;temperature;humidity
21787;DHT22;11055;50.870;4.316;2024-01-11T00:01:25;-1.00;99.90
21787;DHT22;11055;50.870;4.316;2024-01-11T00:03:51;-1.00;99.90
21787;DHT22;11055;50.870;4.316;2024-01-11T00:06:16;-1.00;99.90
21787;DHT22;11055;50.870;4.316;2024-01-11T00:08:42;-1.20;99.90
21787;DHT22;11055;50.870;4.316;2024-01-11T00:11:08;-1.10;99.90
21787;DHT22;11055;50.870;4.316;2024-01-11T00:13:34;-1.30;99.90
21787;DHT22;11055;50.870;4.316;2024-01-11T00:15:59;-1.40;99.90
21787;DHT22;11055;50.870;4.316;2024-01-11T00:18:25;-1.40;99.90
21787;DHT22;11055;50.870;4.316;2024-01-11T00:20:50;-1.40;99.90
21787;DHT22;11055;50.870;4.316;2024-01-11T00:23:18;-1.40;99.90
21787;DHT22;11055;50.870;4.316;2024-01-11T00:25:44;-1.30;99.90
21787;DHT22;11055;50.870;4.316;2024-01-11T00:28:10;-1.20;99.90
21787;DHT22;11055;50.870;4.316;2024-01-11T00:30:35;-1.10;99.90
21787;DHT22;11055;50.870;4.316;2024-01-11T00:33:01;-1.00;99.90
21787;DHT22;11055;50.870;4.316;2024-01-11T00:35:26;-1.10;99.90
21787;DHT22;11055;50.870;4.316;2024-01-11T00:37:52;-1.10;99.90
21787;DHT22;11055;50.870;4.316;2024-01-11T00:40:18;-1.20;99.90
21787;DHT22;11055;50.870;4.316;2024-01-11T00:42:43;-1.20;99.90
21787;DHT22;11055;50.870;4.316;2024-01-11T00:45:09;-1.20;99.90
21787;DHT22;11055;50.870;4.316;2024-01-11T00:47:35;-1.20;99.90
21787;DHT22;11055;50.870;4.316;2024-01-11T00:50:00;-1.30;99.90
21787;DHT22;11055;50.870;4.316;2024-01-11T00:52:26;-1.30;99.90
21787;DHT22;11055;50.870;4.316;2024-01-11T00:54:52;-1.40;99.90
21787;DHT22;11055;50.870;4.316;2024-01-11T00:57:18;-1.40;99.90
21787;DHT22;11055;50.870;4.316;2024-01-11T00:59:43;-1.50;99.90
21787;DHT22;11055;50.870;4.316;2024-01-11T01:02:09;-1.40;99.90
21787;DHT22;11055;50.870;4.316;2024-01-11T01:04:38;-1.50;99.90
21787;DHT22;11055;50.870;4.316;2024-01-11T01:07:04;-1.60;99.90
21787;DHT22;11055;50.870;4.316;2024-01-11T01:09:31;-1.50;99.90
21787;DHT22;11055;50.870;4.316;2024-01-11T01:11:56;-1.50;99.90
21787;DHT22;11055;50.870;4.316;2024-01-11T01:14:22;-1.60;99.90
21787;DHT22;11055;50.870;4.316;2024-01-11T01:16:48;-1.50;99.90
21787;DHT22;11055;50.870;4.316;2024-01-11T01:19:13;-1.50;99.90
21787;DHT22;11055;50.870;4.316;2024-01-11T01:21:39;-1.30;99.90
21787;DHT22;11055;50.870;4.316;2024-01-11T01:24:05;-1.40;99.90
21787;DHT22;11055;50.870;4.316;2024-01-11T01:26:30;-1.40;99.90
21787;DHT22;11055;50.870;4.316;2024-01-11T01:28:56;-1.50;99.90
21787;DHT22;11055;50.870;4.316;2024-01-11T01:31:22;-1.40;99.90
21787;DHT22;11055;50.870;4.316;2024-01-11T01:33:47;-1.40;99.90
21787;DHT22;11055;50.870;4.316;2024-01-11T01:36:13;-1.40;99.90
21787;DHT22;11055;50.870;4.316;2024-01-11T01:38:39;-1.50;99.90
21787;DHT22;11055;50.870;4.316;2024-01-11T01:41:04;-1.50;99.90
21787;DHT22;11055;50.870;4.316;2024-01-11T01:43:30;-1.40;99.90
21787;DHT22;11055;50.870;4.316;2024-01-11T01:45:56;-1.30;99.90
21787;DHT22;11055;50.870;4.316;2024-01-11T01:48:23;-1.30;99.90
21787;DHT22;11055;50.870;4.316;2024-01-11T01:50:48;-1.40;99.90
21787;DHT22;11055;50.870;4.316;2024-01-11T01:53:22;-1.60;99.90
21787;DHT22;11055;50.870;4.316;2024-01-11T01:55:48;-1.70;99.90
21787;DHT22;11055;50.870;4.316;2024-01-11T01:58:15;-1.70;99.90
21787;DHT22;11055;50.870;4.316;2024-01-11T02:00:41;-1.80;99.90
21787;DHT22;11055;50.870;4.316;2024-01-11T02:03:09;-1.70;99.90
21787;DHT22;11055;50.870;4.316;2024-01-11T02:05:35;-1.70;99.90
21787;DHT22;11055;50.870;4.316;2024-01-11T02:08:04;-1.70;99.90
21787;DHT22;11055;50.870;4.316;2024-01-11T02:10:34;-1.70;99.90
21787;DHT22;11055;50.870;4.316;2024-01-11T02:13:01;-1.70;99.90
21787;DHT22;11055;50.870;4.316;2024-01-11T02:15:26;-1.70;99.90
21787;DHT22;11055;50.870;4.316;2024-01-11T02:17:52;-1.70;99.90
21787;DHT22;11055;50.870;4.316;2024-01-11T02:20:18;-1.50;99.90
21787;DHT22;11055;50.870;4.316;2024-01-11T02:22:49;-1.60;99.90
21787;DHT22;11055;50.870;4.316;2024-01-11T02:25:15;-1.50;99.90
21787;DHT22;11055;50.870;4.316;2024-01-11T02:27:48;-1.60;99.90
21787;DHT22;11055;50.870;4.316;2024-01-11T02:30:15;-1.60;99.90
21787;DHT22;11055;50.870;4.316;2024-01-11T02:32:43;-1.50;99.90
21787;DHT22;11055;50.870;4.316;2024-01-11T02:35:12;-1.40;99.90
21787;DHT22;11055;50.870;4.316;2024-01-11T02:37:38;-1.50;99.90
21787;DHT22;11055;50.870;4.316;2024-01-11T02:40:06;-1.50;99.90
21787;DHT22;11055;50.870;4.316;2024-01-11T02:42:33;-1.60;99.90
21787;DHT22;11055;50.870;4.316;2024-01-11T02:44:58;-1.50;99.90
21787;DHT22;11055;50.870;4.316;2024-01-11T02:47:24;-1.60;99.90
21787;DHT22;11055;50.870;4.316;2024-01-11T02:49:50;-1.60;99.90
21787;DHT22;11055;50.870;4.316;2024-01-11T02:52:15;-1.80;99.90
21787;DHT22;11055;50.870;4.316;2024-01-11T02:54:41;-1.90;99.90
21787;DHT22;11055;50.870;4.316;2024-01-11T02:57:07;-1.90;99.90
21787;DHT22;11055;50.870;4.316;2024-01-11T02:59:32;-1.90;99.90
21787;DHT22;11055;50.870;4.316;2024-01-11T03:01:58;-1.70;99.90
21787;DHT22;11055;50.870;4.316;2024-01-11T03:04:23;-1.60;99.90
21787;DHT22;11055;50.870;4.316;2024-01-11T03:06:49;-1.50;99.90
21787;DHT22;11055;50.870;4.316;2024-01-11T03:09:15;-1.40;99.90
21787;DHT22;11055;50.870;4.316;2024-01-11T03:11:40;-1.40;99.90
21787;DHT22;11055;50.870;4.316;2024-01-11T03:14:06;-1.30;99.90
21787;DHT22;11055;50.870;4.316;2024-01-11T03:16:32;-1.40;99.90
21787;DHT22;11055;50.870;4.316;2024-01-11T03:18:57;-1.40;99.90
21787;DHT22;11055;50.870;4.316;2024-01-11T03:21:23;-1.40;99.90
21787;DHT22;11055;50.870;4.316;2024-01-11T03:23:49;-1.40;99.90
21787;DHT22;11055;50.870;4.316;2024-01-11T03:26:16;-1.50;99.90
21787;DHT22;11055;50.870;4.316;2024-01-11T03:28:42;-1.40;99.90
21787;DHT22;11055;50.870;4.316;2024-01-11T03:31:10;-1.30;99.90
21787;DHT22;11055;50.870;4.316;2024-01-11T03:33:36;-1.20;99.90
21787;DHT22;11055;50.870;4.316;2024-01-11T03:36:09;-1.20;99.90
21787;DHT22;11055;50.870;4.316;2024-01-11T03:38:35;-1.20;99.90
21787;DHT22;11055;50.870;4.316;2024-01-11T03:41:01;-1.30;99.90
21787;DHT22;11055;50.870;4.316;2024-01-11T03:43:28;-1.30;99.90
21787;DHT22;11055;50.870;4.316;2024-01-11T03:45:53;-1.20;99.90
21787;DHT22;11055;50.870;4.316;2024-01-11T03:48:19;-1.30;99.90
21787;DHT22;11055;50.870;4.316;2024-01-11T03:50:45;-1.30;99.90
21787;DHT22;11055;50.870;4.316;2024-01-11T03:53:10;-1.20;99.90
21787;DHT22;11055;50.870;4.316;2024-01-11T03:55:36;-1.20;99.90
21787;DHT22;11055;50.870;4.316;2024-01-11T03:58:02;-1.20;99.90
21787;DHT22;11055;50.870;4.316;2024-01-11T04:00:27;-1.20;99.90
21787;DHT22;11055;50.870;4.316;2024-01-11T04:02:53;-1.10;99.90
21787;DHT22;11055;50.870;4.316;2024-01-11T04:05:19;-1.10;99.90
21787;DHT22;11055;50.870;4.316;2024-01-11T04:07:44;-1.10;99.90
21787;DHT22;11055;50.870;4.316;2024-01-11T04:10:10;-1.00;99.90
21787;DHT22;11055;50.870;4.316;2024-01-11T04:12:36;-1.00;99.90
21787;DHT22;11055;50.870;4.316;2024-01-11T04:15:03;-1.10;99.90
21787;DHT22;11055;50.870;4.316;2024-01-11T04:17:29;-1.00;99.90
21787;DHT22;11055;50.870;4.316;2024-01-11T04:19:54;-0.90;99.90
21787;DHT22;11055;50.870;4.316;2024-01-11T04:22:21;-1.00;99.90
21787;DHT22;11055;50.870;4.316;2024-01-11T04:24:46;-0.90;99.90
21787;DHT22;11055;50.870;4.316;2024-01-11T04:27:12;-1.00;99.90
21787;DHT22;11055;50.870;4.316;2024-01-11T04:29:38;-1.00;99.90
21787;DHT22;11055;50.870;4.316;2024-01-11T04:32:03;-1.00;99.90
21787;DHT22;11055;50.870;4.316;2024-01-11T04:34:29;-1.00;99.90
21787;DHT22;11055;50.870;4.316;2024-01-11T04:36:55;-1.00;99.90
21787;DHT22;11055;50.870;4.316;2024-01-11T04:39:21;-1.10;99.90
21787;DHT22;11055;50.870;4.316;2024-01-11T04:41:46;-1.20;99.90
21787;DHT22;11055;50.870;4.316;2024-01-11T04:44:13;-1.30;99.90
21787;DHT22;11055;50.870;4.316;2024-01-11T04:46:39;-1.20;99.90
21787;DHT22;11055;50.870;4.316;2024-01-11T04:49:04;-1.20;99.90
21787;DHT22;11055;50.870;4.316;2024-01-11T04:51:30;-1.40;99.90
21787;DHT22;11055;50.870;4.316;2024-01-11T04:53:55;-1.40;99.90
21787;DHT22;11055;50.870;4.316;2024-01-11T04:56:21;-1.30;99.90
21787;DHT22;11055;50.870;4.316;2024-01-11T04:58:47;-1.30;99.90
21787;DHT22;11055;50.870;4.316;2024-01-11T05:01:14;-1.30;99.90
21787;DHT22;11055;50.870;4.316;2024-01-11T05:03:40;-1.50;99.90
21787;DHT22;11055;50.870;4.316;2024-01-11T05:06:06;-1.50;99.90
21787;DHT22;11055;50.870;4.316;2024-01-11T05:08:32;-1.50;99.90
21787;DHT22;11055;50.870;4.316;2024-01-11T05:10:57;-1.40;99.90
21787;DHT22;11055;50.870;4.316;2024-01-11T05:13:23;-1.40;99.90
21787;DHT22;11055;50.870;4.316;2024-01-11T05:15:49;-1.50;99.90
21787;DHT22;11055;50.870;4.316;2024-01-11T05:18:14;-1.50;99.90
21787;DHT22;11055;50.870;4.316;2024-01-11T05:20:40;-1.50;99.90
21787;DHT22;11055;50.870;4.316;2024-01-11T05:23:06;-1.50;99.90
21787;DHT22;11055;50.870;4.316;2024-01-11T05:25:32;-1.60;99.90
21787;DHT22;11055;50.870;4.316;2024-01-11T05:28:02;-1.50;99.90
21787;DHT22;11055;50.870;4.316;2024-01-11T05:30:28;-1.50;99.90
21787;DHT22;11055;50.870;4.316;2024-01-11T05:32:54;-1.50;99.90
21787;DHT22;11055;50.870;4.316;2024-01-11T05:35:21;-1.50;99.90
21787;DHT22;11055;50.870;4.316;2024-01-11T05:37:47;-1.30;99.90
21787;DHT22;11055;50.870;4.316;2024-01-11T05:40:13;-1.30;99.90
21787;DHT22;11055;50.870;4.316;2024-01-11T05:42:39;-1.40;99.90
21787;DHT22;11055;50.870;4.316;2024-01-11T05:45:05;-1.20;99.90
21787;DHT22;11055;50.870;4.316;2024-01-11T05:47:31;-1.30;99.90
21787;DHT22;11055;50.870;4.316;2024-01-11T05:49:57;-1.30;99.90
21787;DHT22;11055;50.870;4.316;2024-01-11T05:52:22;-1.30;99.90
21787;DHT22;11055;50.870;4.316;2024-01-11T05:54:48;-1.20;99.90
21787;DHT22;11055;50.870;4.316;2024-01-11T05:57:14;-1.40;99.90
21787;DHT22;11055;50.870;4.316;2024-01-11T05:59:46;-1.40;99.90
21787;DHT22;11055;50.870;4.316;2024-01-11T06:02:12;-1.50;99.90
21787;DHT22;11055;50.870;4.316;2024-01-11T06:04:39;-1.50;99.90
21787;DHT22;11055;50.870;4.316;2024-01-11T06:07:04;-1.50;99.90
21787;DHT22;11055;50.870;4.316;2024-01-11T06:09:30;-1.40;99.90
21787;DHT22;11055;50.870;4.316;2024-01-11T06:11:56;-1.40;99.90
21787;DHT22;11055;50.870;4.316;2024-01-11T06:14:21;-1.40;99.90
21787;DHT22;11055;50.870;4.316;2024-01-11T06:16:47;-1.40;99.90
21787;DHT22;11055;50.870;4.316;2024-01-11T06:19:12;-1.40;99.90
21787;DHT22;11055;50.870;4.316;2024-01-11T06:21:38;-1.40;99.90
21787;DHT22;11055;50.870;4.316;2024-01-11T06:24:04;-1.40;99.90
21787;DHT22;11055;50.870;4.316;2024-01-11T06:26:29;-1.40;99.90
21787;DHT22;11055;50.870;4.316;2024-01-11T06:28:55;-1.50;99.90
21787;DHT22;11055;50.870;4.316;2024-01-11T06:31:21;-1.60;99.90
21787;DHT22;11055;50.870;4.316;2024-01-11T06:33:47;-1.70;99.90
21787;DHT22;11055;50.870;4.316;2024-01-11T06:36:12;-1.70;99.90
21787;DHT22;11055;50.870;4.316;2024-01-11T06:38:38;-1.70;99.90
21787;DHT22;11055;50.870;4.316;2024-01-11T06:41:04;-1.80;99.90
21787;DHT22;11055;50.870;4.316;2024-01-11T06:43:29;-1.70;99.90
21787;DHT22;11055;50.870;4.316;2024-01-11T06:45:55;-1.60;99.90
21787;DHT22;11055;50.870;4.316;2024-01-11T06:48:21;-1.80;99.90
21787;DHT22;11055;50.870;4.316;2024-01-11T06:50:46;-1.80;99.90
21787;DHT22;11055;50.870;4.316;2024-01-11T06:53:12;-1.80;99.90
21787;DHT22;11055;50.870;4.316;2024-01-11T06:55:38;-1.80;99.90
21787;DHT22;11055;50.870;4.316;2024-01-11T06:58:06;-2.00;99.90
21787;DHT22;11055;50.870;4.316;2024-01-11T07:00:31;-2.10;99.90
21787;DHT22;11055;50.870;4.316;2024-01-11T07:02:57;-2.20;99.90
21787;DHT22;11055;50.870;4.316;2024-01-11T07:05:23;-2.20;99.90
21787;DHT22;11055;50.870;4.316;2024-01-11T07:07:48;-2.20;99.90
21787;DHT22;11055;50.870;4.316;2024-01-11T07:10:14;-2.30;99.90
21787;DHT22;11055;50.870;4.316;2024-01-11T07:12:40;-2.30;99.90
21787;DHT22;11055;50.870;4.316;2024-01-11T07:15:08;-2.40;99.90
21787;DHT22;11055;50.870;4.316;2024-01-11T07:17:34;-2.40;99.90
21787;DHT22;11055;50.870;4.316;2024-01-11T07:20:01;-2.40;99.90
21787;DHT22;11055;50.870;4.316;2024-01-11T07:22:29;-2.40;99.90
21787;DHT22;11055;50.870;4.316;2024-01-11T07:24:55;-2.50;99.90
21787;DHT22;11055;50.870;4.316;2024-01-11T07:27:20;-2.40;99.90
21787;DHT22;11055;50.870;4.316;2024-01-11T07:29:46;-2.30;99.90
21787;DHT22;11055;50.870;4.316;2024-01-11T07:32:12;-2.30;99.90
21787;DHT22;11055;50.870;4.316;2024-01-11T07:34:37;-2.20;99.90
21787;DHT22;11055;50.870;4.316;2024-01-11T07:37:03;-2.20;99.90
21787;DHT22;11055;50.870;4.316;2024-01-11T07:39:29;-2.20;99.90
21787;DHT22;11055;50.870;4.316;2024-01-11T07:41:56;-2.30;99.90
21787;DHT22;11055;50.870;4.316;2024-01-11T07:44:22;-2.30;99.90
21787;DHT22;11055;50.870;4.316;2024-01-11T07:46:47;-2.30;99.90
21787;DHT22;11055;50.870;4.316;2024-01-11T07:49:13;-2.50;99.90
21787;DHT22;11055;50.870;4.316;2024-01-11T07:51:39;-2.50;99.90
21787;DHT22;11055;50.870;4.316;2024-01-11T07:54:04;-2.50;99.90
21787;DHT22;11055;50.870;4.316;2024-01-11T07:56:30;-2.60;99.90
21787;DHT22;11055;50.870;4.316;2024-01-11T07:58:56;-2.50;99.90
21787;DHT22;11055;50.870;4.316;2024-01-11T08:01:22;-2.50;99.90
21787;DHT22;11055;50.870;4.316;2024-01-11T08:03:47;-2.60;99.90
21787;DHT22;11055;50.870;4.316;2024-01-11T08:06:13;-2.60;99.90
21787;DHT22;11055;50.870;4.316;2024-01-11T08:08:39;-2.60;99.90
21787;DHT22;11055;50.870;4.316;2024-01-11T08:11:08;-2.60;99.90
21787;DHT22;11055;50.870;4.316;2024-01-11T08:13:33;-2.70;99.90
21787;DHT22;11055;50.870;4.316;2024-01-11T08:16:03;-2.80;99.90
21787;DHT22;11055;50.870;4.316;2024-01-11T08:18:30;-2.70;99.90
21787;DHT22;11055;50.870;4.316;2024-01-11T08:20:56;-2.70;99.90
21787;DHT22;11055;50.870;4.316;2024-01-11T08:23:22;-2.60;99.90
21787;DHT22;11055;50.870;4.316;2024-01-11T08:25:47;-2.50;99.90
21787;DHT22;11055;50.870;4.316;2024-01-11T08:28:13;-2.50;99.90
21787;DHT22;11055;50.870;4.316;2024-01-11T08:30:39;-2.50;99.90
21787;DHT22;11055;50.870;4.316;2024-01-11T08:33:04;-2.30;99.90
21787;DHT22;11055;50.870;4.316;2024-01-11T08:35:30;-2.30;99.90
21787;DHT22;11055;50.870;4.316;2024-01-11T08:37:57;-2.30;99.90
21787;DHT22;11055;50.870;4.316;2024-01-11T08:40:23;-2.30;99.90
21787;DHT22;11055;50.870;4.316;2024-01-11T08:42:49;-2.10;99.90
21787;DHT22;11055;50.870;4.316;2024-01-11T08:45:14;-2.00;99.90
21787;DHT22;11055;50.870;4.316;2024-01-11T08:47:46;-2.00;99.90
21787;DHT22;11055;50.870;4.316;2024-01-11T08:50:15;-1.90;99.90
21787;DHT22;11055;50.870;4.316;2024-01-11T08:52:41;-1.90;99.90
21787;DHT22;11055;50.870;4.316;2024-01-11T08:55:08;-1.90;99.90
21787;DHT22;11055;50.870;4.316;2024-01-11T08:57:35;-1.90;99.90
21787;DHT22;11055;50.870;4.316;2024-01-11T09:00:02;-1.70;99.90
21787;DHT22;11055;50.870;4.316;2024-01-11T09:02:29;-1.70;99.90
21787;DHT22;11055;50.870;4.316;2024-01-11T09:04:55;-1.80;99.90
21787;DHT22;11055;50.870;4.316;2024-01-11T09:07:20;-1.80;99.90
21787;DHT22;11055;50.870;4.316;2024-01-11T09:09:46;-2.00;99.90
21787;DHT22;11055;50.870;4.316;2024-01-11T09:12:12;-2.00;99.90
21787;DHT22;11055;50.870;4.316;2024-01-11T09:14:37;-2.10;99.90
21787;DHT22;11055;50.870;4.316;2024-01-11T09:17:04;-2.20;99.90
21787;DHT22;11055;50.870;4.316;2024-01-11T09:19:32;-2.20;99.90
21787;DHT22;11055;50.870;4.316;2024-01-11T09:21:59;-2.10;99.90
21787;DHT22;11055;50.870;4.316;2024-01-11T09:24:25;-2.10;99.90
21787;DHT22;11055;50.870;4.316;2024-01-11T09:26:52;-1.90;99.90
21787;DHT22;11055;50.870;4.316;2024-01-11T09:29:18;-1.80;99.90
21787;DHT22;11055;50.870;4.316;2024-01-11T09:31:43;-1.70;99.90
21787;DHT22;11055;50.870;4.316;2024-01-11T09:34:10;-1.60;99.90
21787;DHT22;11055;50.870;4.316;2024-01-11T09:36:36;-1.60;99.90
21787;DHT22;11055;50.870;4.316;2024-01-11T09:39:04;-1.60;99.90
21787;DHT22;11055;50.870;4.316;2024-01-11T09:41:31;-1.50;99.90
21787;DHT22;11055;50.870;4.316;2024-01-11T09:44:00;-1.50;99.90
21787;DHT22;11055;50.870;4.316;2024-01-11T09:46:27;-1.40;99.90
21787;DHT22;11055;50.870;4.316;2024-01-11T09:48:54;-1.50;99.90
21787;DHT22;11055;50.870;4.316;2024-01-11T09:51:20;-1.30;99.90
21787;DHT22;11055;50.870;4.316;2024-01-11T09:53:47;-1.40;99.90
21787;DHT22;11055;50.870;4.316;2024-01-11T09:56:16;-1.20;99.90
21787;DHT22;11055;50.870;4.316;2024-01-11T09:58:46;-1.10;99.90
21787;DHT22;11055;50.870;4.316;2024-01-11T10:01:16;-0.90;99.90
21787;DHT22;11055;50.870;4.316;2024-01-11T10:03:43;-0.90;99.90
21787;DHT22;11055;50.870;4.316;2024-01-11T10:06:10;-0.80;99.90
21787;DHT22;11055;50.870;4.316;2024-01-11T10:08:36;-0.80;99.90
21787;DHT22;11055;50.870;4.316;2024-01-11T10:11:02;-0.80;99.90
21787;DHT22;11055;50.870;4.316;2024-01-11T10:13:30;-0.70;99.90
21787;DHT22;11055;50.870;4.316;2024-01-11T10:16:12;-0.70;99.90
21787;DHT22;11055;50.870;4.316;2024-01-11T10:18:44;-0.50;99.90
21787;DHT22;11055;50.870;4.316;2024-01-11T10:21:09;-0.60;99.90
21787;DHT22;11055;50.870;4.316;2024-01-11T10:23:38;-0.70;99.90
21787;DHT22;11055;50.870;4.316;2024-01-11T10:26:06;-0.60;99.90
21787;DHT22;11055;50.870;4.316;2024-01-11T10:28:35;-0.60;99.90
21787;DHT22;11055;50.870;4.316;2024-01-11T10:31:03;-0.50;99.90
21787;DHT22;11055;50.870;4.316;2024-01-11T10:33:30;-0.40;99.90
21787;DHT22;11055;50.870;4.316;2024-01-11T10:35:56;-0.40;99.90
21787;DHT22;11055;50.870;4.316;2024-01-11T10:38:22;-0.50;99.90
21787;DHT22;11055;50.870;4.316;2024-01-11T10:40:54;-0.60;99.90
21787;DHT22;11055;50.870;4.316;2024-01-11T10:43:22;-0.60;99.90
21787;DHT22;11055;50.870;4.316;2024-01-11T10:45:52;-0.50;99.90
21787;DHT22;11055;50.870;4.316;2024-01-11T10:48:23;-0.50;99.90
21787;DHT22;11055;50.870;4.316;2024-01-11T10:50:54;-0.60;99.90
21787;DHT22;11055;50.870;4.316;2024-01-11T10:53:42;-0.60;99.90
21787;DHT22;11055;50.870;4.316;2024-01-11T10:56:10;-0.60;99.90
21787;DHT22;11055;50.870;4.316;2024-01-11T10:58:40;-0.50;99.90
21787;DHT22;11055;50.870;4.316;2024-01-11T11:01:06;-0.50;99.90
21787;DHT22;11055;50.870;4.316;2024-01-11T11:03:34;-0.30;99.90
21787;DHT22;11055;50.870;4.316;2024-01-11T11:06:02;-0.20;99.90
21787;DHT22;11055;50.870;4.316;2024-01-11T11:08:29;0.00;99.90
21787;DHT22;11055;50.870;4.316;2024-01-11T11:11:02;0.10;99.90
21787;DHT22;11055;50.870;4.316;2024-01-11T11:13:32;0.10;99.90
21787;DHT22;11055;50.870;4.316;2024-01-11T11:16:00;-0.10;99.90
21787;DHT22;11055;50.870;4.316;2024-01-11T11:18:27;-0.10;99.90
21787;DHT22;11055;50.870;4.316;2024-01-11T11:20:53;-0.10;99.90
21787;DHT22;11055;50.870;4.316;2024-01-11T11:23:19;-0.10;99.90
21787;DHT22;11055;50.870;4.316;2024-01-11T11:25:47;-0.10;99.90
21787;DHT22;11055;50.870;4.316;2024-01-11T11:28:14;0.10;99.90
21787;DHT22;11055;50.870;4.316;2024-01-11T11:30:41;0.10;99.90
21787;DHT22;11055;50.870;4.316;2024-01-11T11:33:18;0.20;99.90
21787;DHT22;11055;50.870;4.316;2024-01-11T11:35:45;0.20;99.90
21787;DHT22;11055;50.870;4.316;2024-01-11T11:38:19;0.10;99.90
21787;DHT22;11055;50.870;4.316;2024-01-11T11:40:46;0.40;99.90
21787;DHT22;11055;50.870;4.316;2024-01-11T11:43:15;0.40;99.90
21787;DHT22;11055;50.870;4.316;2024-01-11T11:45:42;0.50;99.90
21787;DHT22;11055;50.870;4.316;2024-01-11T11:53:33;0.70;99.90
21787;DHT22;11055;50.870;4.316;2024-01-11T11:56:00;0.80;99.90
21787;DHT22;11055;50.870;4.316;2024-01-11T11:58:28;0.70;99.90
21787;DHT22;11055;50.870;4.316;2024-01-11T12:00:55;0.60;99.90
21787;DHT22;11055;50.870;4.316;2024-01-11T12:03:32;0.50;99.90
21787;DHT22;11055;50.870;4.316;2024-01-11T12:05:58;0.70;99.90
21787;DHT22;11055;50.870;4.316;2024-01-11T12:08:24;0.80;99.90
21787;DHT22;11055;50.870;4.316;2024-01-11T12:10:53;0.90;99.90
21787;DHT22;11055;50.870;4.316;2024-01-11T12:13:19;0.90;99.90
21787;DHT22;11055;50.870;4.316;2024-01-11T12:15:46;1.00;99.90
21787;DHT22;11055;50.870;4.316;2024-01-11T12:18:12;1.10;99.90
21787;DHT22;11055;50.870;4.316;2024-01-11T12:20:37;1.10;99.90
21787;DHT22;11055;50.870;4.316;2024-01-11T12:23:04;1.20;99.90
21787;DHT22;11055;50.870;4.316;2024-01-11T12:25:31;1.10;99.90
21787;DHT22;11055;50.870;4.316;2024-01-11T12:27:57;1.10;99.90
21787;DHT22;11055;50.870;4.316;2024-01-11T12:30:24;1.10;99.90
21787;DHT22;11055;50.870;4.316;2024-01-11T12:32:56;1.20;99.90
21787;DHT22;11055;50.870;4.316;2024-01-11T12:35:22;1.30;99.90
21787;DHT22;11055;50.870;4.316;2024-01-11T12:37:54;1.40;99.90
21787;DHT22;11055;50.870;4.316;2024-01-11T12:40:21;1.50;99.90
21787;DHT22;11055;50.870;4.316;2024-01-11T12:42:49;1.50;99.90
21787;DHT22;11055;50.870;4.316;2024-01-11T12:45:19;1.50;99.90
21787;DHT22;11055;50.870;4.316;2024-01-11T12:47:44;1.40;99.90
21787;DHT22;11055;50.870;4.316;2024-01-11T12:50:11;1.40;99.90
21787;DHT22;11055;50.870;4.316;2024-01-11T12:52:41;1.50;99.90
21787;DHT22;11055;50.870;4.316;2024-01-11T12:55:20;1.40;99.90
21787;DHT22;11055;50.870;4.316;2024-01-11T12:57:46;1.40;99.90
21787;DHT22;11055;50.870;4.316;2024-01-11T13:00:12;1.40;99.90
21787;DHT22;11055;50.870;4.316;2024-01-11T13:02:39;1.50;99.90
21787;DHT22;11055;50.870;4.316;2024-01-11T13:05:06;1.50;99.90
21787;DHT22;11055;50.870;4.316;2024-01-11T13:07:32;1.40;99.90
21787;DHT22;11055;50.870;4.316;2024-01-11T13:09:59;1.60;99.90
21787;DHT22;11055;50.870;4.316;2024-01-11T13:12:25;1.50;99.90
21787;DHT22;11055;50.870;4.316;2024-01-11T13:14:50;1.60;99.90
21787;DHT22;11055;50.870;4.316;2024-01-11T13:17:18;1.70;99.90
21787;DHT22;11055;50.870;4.316;2024-01-11T13:19:44;1.70;99.90
21787;DHT22;11055;50.870;4.316;2024-01-11T13:22:10;1.90;99.90
21787;DHT22;11055;50.870;4.316;2024-01-11T13:24:36;2.00;99.90
21787;DHT22;11055;50.870;4.316;2024-01-11T13:27:01;1.90;99.90
21787;DHT22;11055;50.870;4.316;2024-01-11T13:29:27;1.80;99.90
21787;DHT22;11055;50.870;4.316;2024-01-11T13:31:53;1.70;99.90
21787;DHT22;11055;50.870;4.316;2024-01-11T13:34:18;1.60;99.90
21787;DHT22;11055;50.870;4.316;2024-01-11T13:36:45;1.70;99.90
21787;DHT22;11055;50.870;4.316;2024-01-11T13:39:11;1.80;99.90
21787;DHT22;11055;50.870;4.316;2024-01-11T13:41:36;1.90;99.90
21787;DHT22;11055;50.870;4.316;2024-01-11T13:44:02;2.10;99.90
21787;DHT22;11055;50.870;4.316;2024-01-11T13:46:32;2.10;99.90
21787;DHT22;11055;50.870;4.316;2024-01-11T13:48:58;2.20;99.90
21787;DHT22;11055;50.870;4.316;2024-01-11T13:51:24;2.20;99.90
21787;DHT22;11055;50.870;4.316;2024-01-11T13:53:49;2.20;99.90
21787;DHT22;11055;50.870;4.316;2024-01-11T13:56:15;2.20;99.90
21787;DHT22;11055;50.870;4.316;2024-01-11T13:58:41;2.20;99.90
21787;DHT22;11055;50.870;4.316;2024-01-11T14:01:06;2.30;99.90
21787;DHT22;11055;50.870;4.316;2024-01-11T14:03:33;2.30;99.90
21787;DHT22;11055;50.870;4.316;2024-01-11T14:05:59;2.30;99.90
21787;DHT22;11055;50.870;4.316;2024-01-11T14:08:25;2.40;99.90
21787;DHT22;11055;50.870;4.316;2024-01-11T14:10:51;2.40;99.90
21787;DHT22;11055;50.870;4.316;2024-01-11T14:13:17;2.50;99.90
21787;DHT22;11055;50.870;4.316;2024-01-11T14:15:43;2.50;99.90
21787;DHT22;11055;50.870;4.316;2024-01-11T14:18:08;2.50;99.90
21787;DHT22;11055;50.870;4.316;2024-01-11T14:20:35;2.60;99.90
21787;DHT22;11055;50.870;4.316;2024-01-11T14:23:00;2.60;99.90
21787;DHT22;11055;50.870;4.316;2024-01-11T14:25:26;2.50;99.90
21787;DHT22;11055;50.870;4.316;2024-01-11T14:27:52;2.50;99.90
21787;DHT22;11055;50.870;4.316;2024-01-11T14:30:21;2.50;99.90
21787;DHT22;11055;50.870;4.316;2024-01-11T14:32:48;2.50;99.90
21787;DHT22;11055;50.870;4.316;2024-01-11T14:35:14;2.50;99.90
21787;DHT22;11055;50.870;4.316;2024-01-11T14:37:40;2.50;99.90
21787;DHT22;11055;50.870;4.316;2024-01-11T14:40:07;2.60;99.90
21787;DHT22;11055;50.870;4.316;2024-01-11T14:42:37;2.50;99.90
21787;DHT22;11055;50.870;4.316;2024-01-11T14:45:03;2.60;99.90
21787;DHT22;11055;50.870;4.316;2024-01-11T14:47:29;2.70;99.90
21787;DHT22;11055;50.870;4.316;2024-01-11T14:49:57;2.60;99.90
21787;DHT22;11055;50.870;4.316;2024-01-11T14:52:22;2.60;99.90
21787;DHT22;11055;50.870;4.316;2024-01-11T14:54:48;2.50;99.90
21787;DHT22;11055;50.870;4.316;2024-01-11T14:57:14;2.40;99.90
21787;DHT22;11055;50.870;4.316;2024-01-11T14:59:40;2.40;99.90
21787;DHT22;11055;50.870;4.316;2024-01-11T15:02:06;2.50;99.90
21787;DHT22;11055;50.870;4.316;2024-01-11T15:04:32;2.50;99.90
21787;DHT22;11055;50.870;4.316;2024-01-11T15:06:57;2.30;99.90
21787;DHT22;11055;50.870;4.316;2024-01-11T15:09:23;2.20;99.90
21787;DHT22;11055;50.870;4.316;2024-01-11T15:11:49;2.10;99.90
21787;DHT22;11055;50.870;4.316;2024-01-11T15:14:15;2.10;99.90
21787;DHT22;11055;50.870;4.316;2024-01-11T15:16:41;2.20;99.90
21787;DHT22;11055;50.870;4.316;2024-01-11T15:19:09;2.20;99.90
21787;DHT22;11055;50.870;4.316;2024-01-11T15:21:35;2.10;99.90
21787;DHT22;11055;50.870;4.316;2024-01-11T15:24:01;2.20;99.90
21787;DHT22;11055;50.870;4.316;2024-01-11T15:26:27;2.20;99.90
21787;DHT22;11055;50.870;4.316;2024-01-11T15:28:53;2.20;99.90
21787;DHT22;11055;50.870;4.316;2024-01-11T15:31:19;2.10;99.90
21787;DHT22;11055;50.870;4.316;2024-01-11T15:33:44;2.20;99.90
21787;DHT22;11055;50.870;4.316;2024-01-11T15:36:11;2.20;99.90